Time;durP1;ratioP1;P1;durP2;ratioP2;P2;SDS_P1;SDS_P2;PMS_P1;PMS_P2;Temp;Humidity;BMP_temperature;BMP_pressure;BME280_temperature;BME280_humidity;BME280_pressure;Samples;Min_cycle;Max_cycle;Signal;HPM_P1;HPM_P2
2023/08/30 00:01:43;;;;;;;0.10;0.10;;;;;;;;;;6159489;23;20013;-85
2023/08/30 00:04:09;;;;;;;0.10;0.10;;;;;;;;;;6185353;23;20013;-85
2023/08/30 00:06:35;;;;;;;0.10;0.10;;;;;;;;;;6183645;23;20019;-85
2023/08/30 00:09:01;;;;;;;0.10;0.10;;;;;;;;;;6185431;23;20342;-85
2023/08/30 00:11:30;;;;;;;0.10;0.10;;;;;;;;;;6183569;23;20017;-85
2023/08/30 00:13:58;;;;;;;0.10;0.10;;;;;;;;;;6158878;23;20013;-84
2023/08/30 00:16:24;;;;;;;0.10;0.10;;;;;;;;;;6159044;23;20013;-85
2023/08/30 00:18:50;;;;;;;0.10;0.10;;;;;;;;;;6183524;23;20067;-84
2023/08/30 00:21:16;;;;;;;0.10;0.10;;;;;;;;;;6183309;23;20012;-85
2023/08/30 00:23:42;;;;;;;0.10;0.10;;;;;;;;;;6185402;23;20020;-84
2023/08/30 00:26:08;;;;;;;0.10;0.10;;;;;;;;;;6158730;23;20009;-84
2023/08/30 00:28:34;;;;;;;0.10;0.10;;;;;;;;;;6183509;23;20017;-87
2023/08/30 00:31:00;;;;;;;0.10;0.10;;;;;;;;;;6134120;23;20013;-86
2023/08/30 00:33:26;;;;;;;0.10;0.10;;;;;;;;;;6183214;23;20052;-86
2023/08/30 00:35:56;;;;;;;0.10;0.10;;;;;;;;;;6184762;23;20468;-85
2023/08/30 00:38:22;;;;;;;0.10;0.10;;;;;;;;;;6158580;23;20091;-85
2023/08/30 00:40:48;;;;;;;0.10;0.10;;;;;;;;;;6158572;23;20070;-85
2023/08/30 00:43:15;;;;;;;0.10;0.10;;;;;;;;;;6185357;23;20005;-85
2023/08/30 00:45:41;;;;;;;0.10;0.10;;;;;;;;;;6158735;23;20450;-85
2023/08/30 00:48:07;;;;;;;0.32;0.32;;;;;;;;;;6183278;23;20093;-84
2023/08/30 00:50:33;;;;;;;0.20;0.20;;;;;;;;;;6158530;23;20017;-85
2023/08/30 00:53:02;;;;;;;0.10;0.10;;;;;;;;;;6183140;23;20017;-86
2023/08/30 00:55:28;;;;;;;0.10;0.10;;;;;;;;;;6158732;23;20019;-85
2023/08/30 00:57:54;;;;;;;0.10;0.10;;;;;;;;;;6158518;23;20044;-85
2023/08/30 01:00:20;;;;;;;0.10;0.10;;;;;;;;;;6184818;23;20017;-85
2023/08/30 01:02:46;;;;;;;0.10;0.10;;;;;;;;;;6158985;23;20338;-84
2023/08/30 01:05:12;;;;;;;0.10;0.10;;;;;;;;;;6184497;23;20378;-84
2023/08/30 01:07:38;;;;;;;0.10;0.10;;;;;;;;;;6133955;23;20071;-85
2023/08/30 01:10:04;;;;;;;0.10;0.10;;;;;;;;;;6134210;23;20472;-85
2023/08/30 01:12:31;;;;;;;0.10;0.10;;;;;;;;;;6133612;23;20013;-85
2023/08/30 01:15:09;;;;;;;0.10;0.10;;;;;;;;;;6158852;23;20009;-84
2023/08/30 01:17:35;;;;;;;0.10;0.10;;;;;;;;;;6158856;23;20013;-85
2023/08/30 01:20:14;;;;;;;0.10;0.10;;;;;;;;;;6158237;23;20067;-85
2023/08/30 01:22:58;;;;;;;0.10;0.10;;;;;;;;;;6135582;23;20016;-85
2023/08/30 01:25:37;;;;;;;0.10;0.10;;;;;;;;;;6157739;23;20092;-85
2023/08/30 01:28:05;;;;;;;0.10;0.10;;;;;;;;;;6134080;23;20016;-84
2023/08/30 01:30:31;;;;;;;0.10;0.10;;;;;;;;;;6158851;23;20063;-84
2023/08/30 01:32:57;;;;;;;0.10;0.10;;;;;;;;;;6158278;23;20017;-85
2023/08/30 01:35:23;;;;;;;0.10;0.10;;;;;;;;;;6158499;23;20460;-85
2023/08/30 01:37:49;;;;;;;0.10;0.10;;;;;;;;;;6182746;23;20021;-85
2023/08/30 01:40:16;;;;;;;0.10;0.10;;;;;;;;;;6158236;23;20013;-84
2023/08/30 01:42:42;;;;;;;0.10;0.10;;;;;;;;;;6158457;23;20009;-85
2023/08/30 01:45:09;;;;;;;0.10;0.10;;;;;;;;;;6182644;23;20040;-85
2023/08/30 01:47:35;;;;;;;0.10;0.10;;;;;;;;;;6158006;23;20055;-85
2023/08/30 01:50:03;;;;;;;0.10;0.10;;;;;;;;;;6158737;23;20013;-84
2023/08/30 01:52:29;;;;;;;0.10;0.10;;;;;;;;;;6158873;23;20075;-85
2023/08/30 01:54:55;;;;;;;0.10;0.10;;;;;;;;;;6133872;23;20013;-85
2023/08/30 01:57:21;;;;;;;0.10;0.10;;;;;;;;;;6184190;23;20024;-84
2023/08/30 01:59:47;;;;;;;0.35;0.35;;;;;;;;;;6158223;23;20450;-86
2023/08/30 02:02:13;;;;;;;0.10;0.10;;;;;;;;;;6133398;23;20024;-86
2023/08/30 02:04:39;;;;;;;0.10;0.10;;;;;;;;;;6133179;23;20330;-85
2023/08/30 02:07:06;;;;;;;0.10;0.10;;;;;;;;;;6133883;23;20020;-85
2023/08/30 02:09:37;;;;;;;0.10;0.10;;;;;;;;;;6133386;23;20426;-85
2023/08/30 02:12:05;;;;;;;0.10;0.10;;;;;;;;;;6158383;23;20020;-84
2023/08/30 02:14:31;;;;;;;0.10;0.10;;;;;;;;;;6158386;23;20375;-84
2023/08/30 02:16:57;;;;;;;0.10;0.10;;;;;;;;;;6133528;23;20052;-85
2023/08/30 02:19:23;;;;;;;0.10;0.10;;;;;;;;;;6158383;23;20021;-84
2023/08/30 02:21:49;;;;;;;0.10;0.10;;;;;;;;;;6158077;23;20080;-84
2023/08/30 02:24:15;;;;;;;0.20;0.20;;;;;;;;;;6157841;23;20010;-85
2023/08/30 02:26:41;;;;;;;0.10;0.10;;;;;;;;;;6184112;23;20013;-86
2023/08/30 02:29:08;;;;;;;0.20;0.20;;;;;;;;;;6182623;23;20061;-85
2023/08/30 02:31:34;;;;;;;0.10;0.10;;;;;;;;;;6158328;23;20017;-86
2023/08/30 02:34:00;;;;;;;0.10;0.10;;;;;;;;;;6182478;23;20017;-85
2023/08/30 02:36:26;;;;;;;0.10;0.10;;;;;;;;;;6133784;23;20017;-85
2023/08/30 02:38:51;;;;;;;0.20;0.20;;;;;;;;;;6184587;23;20028;-86
2023/08/30 02:41:17;;;;;;;0.10;0.10;;;;;;;;;;6135159;23;20017;-86
2023/08/30 02:43:43;;;;;;;0.10;0.10;;;;;;;;;;6160178;23;20017;-84
2023/08/30 02:46:09;;;;;;;0.10;0.10;;;;;;;;;;6185938;23;20052;-84
2023/08/30 02:48:35;;;;;;;0.10;0.10;;;;;;;;;;6185929;23;20013;-84
2023/08/30 02:51:01;;;;;;;0.10;0.10;;;;;;;;;;6135039;23;20021;-85
2023/08/30 02:53:27;;;;;;;0.10;0.10;;;;;;;;;;6184212;23;20036;-84
2023/08/30 02:55:55;;;;;;;0.10;0.10;;;;;;;;;;6160134;23;20088;-85
2023/08/30 02:58:21;;;;;;;0.10;0.10;;;;;;;;;;6186398;23;20012;-85
2023/08/30 03:00:47;;;;;;;0.10;0.10;;;;;;;;;;6184280;23;20044;-84
2023/08/30 03:03:13;;;;;;;0.10;0.10;;;;;;;;;;6160049;23;20312;-84
2023/08/30 03:05:40;;;;;;;0.30;0.30;;;;;;;;;;6183993;23;20027;-84
2023/08/30 03:08:06;;;;;;;0.10;0.10;;;;;;;;;;6159656;23;20017;-85
2023/08/30 03:10:32;;;;;;;0.10;0.10;;;;;;;;;;6184233;23;20114;-84
2023/08/30 03:12:58;;;;;;;0.10;0.10;;;;;;;;;;6186081;23;20017;-84
2023/08/30 03:15:24;;;;;;;0.20;0.20;;;;;;;;;;6184348;23;20013;-84
2023/08/30 03:17:50;;;;;;;0.20;0.20;;;;;;;;;;6184641;23;20373;-84
2023/08/30 03:20:16;;;;;;;0.10;0.10;;;;;;;;;;6159339;23;20347;-84
2023/08/30 03:22:42;;;;;;;0.10;0.10;;;;;;;;;;6183996;23;20083;-84
2023/08/30 03:25:09;;;;;;;0.10;0.10;;;;;;;;;;6134620;23;20013;-84
2023/08/30 03:27:35;;;;;;;0.10;0.10;;;;;;;;;;6185932;23;20032;-85
2023/08/30 03:30:01;;;;;;;0.10;0.10;;;;;;;;;;6134886;23;20478;-85
2023/08/30 03:32:28;;;;;;;0.10;0.10;;;;;;;;;;6159577;23;20009;-85
2023/08/30 03:34:54;;;;;;;0.10;0.10;;;;;;;;;;6159861;23;20395;-85
2023/08/30 03:37:19;;;;;;;0.20;0.20;;;;;;;;;;6159271;23;20013;-85
2023/08/30 03:39:45;;;;;;;0.10;0.10;;;;;;;;;;6159572;23;20020;-85
2023/08/30 03:42:11;;;;;;;0.10;0.10;;;;;;;;;;6159327;23;20342;-85
2023/08/30 03:44:38;;;;;;;0.10;0.10;;;;;;;;;;6183853;23;20013;-85
2023/08/30 03:47:04;;;;;;;0.20;0.20;;;;;;;;;;6134663;23;20009;-85
2023/08/30 03:49:30;;;;;;;0.10;0.10;;;;;;;;;;6133877;23;20017;-85
2023/08/30 03:51:56;;;;;;;0.10;0.10;;;;;;;;;;6134562;23;20024;-84
2023/08/30 03:54:22;;;;;;;0.15;0.15;;;;;;;;;;6185389;23;20021;-85
2023/08/30 03:56:48;;;;;;;0.20;0.20;;;;;;;;;;6185661;23;20017;-85
2023/08/30 03:59:14;;;;;;;0.10;0.10;;;;;;;;;;6185680;23;20020;-84
2023/08/30 04:01:40;;;;;;;0.10;0.10;;;;;;;;;;6159003;23;20020;-85
2023/08/30 04:04:06;;;;;;;0.20;0.20;;;;;;;;;;6185180;23;20021;-84
2023/08/30 04:06:32;;;;;;;0.10;0.10;;;;;;;;;;6183699;23;20019;-84
2023/08/30 04:08:58;;;;;;;0.10;0.10;;;;;;;;;;6183689;23;20017;-85
2023/08/30 04:11:24;;;;;;;0.10;0.10;;;;;;;;;;6159214;23;20016;-85
2023/08/30 04:13:52;;;;;;;0.10;0.10;;;;;;;;;;6134409;23;20200;-85
2023/08/30 04:16:18;;;;;;;0.10;0.10;;;;;;;;;;6185378;23;20020;-85
2023/08/30 04:18:44;;;;;;;0.10;0.10;;;;;;;;;;6158898;23;20335;-85
2023/08/30 04:21:10;;;;;;;0.10;0.10;;;;;;;;;;6133997;23;20017;-85
2023/08/30 04:23:35;;;;;;;0.20;0.20;;;;;;;;;;6134070;23;20009;-85
2023/08/30 04:26:01;;;;;;;0.10;0.10;;;;;;;;;;6185425;23;20013;-85
2023/08/30 04:28:27;;;;;;;0.10;0.10;;;;;;;;;;6159392;23;20013;-85
2023/08/30 04:30:54;;;;;;;0.17;0.17;;;;;;;;;;6183499;23;20092;-85
2023/08/30 04:33:20;;;;;;;0.10;0.10;;;;;;;;;;6185201;23;20016;-85
2023/08/30 04:35:50;;;;;;;0.10;0.10;;;;;;;;;;6183346;23;20020;-85
2023/08/30 04:38:16;;;;;;;0.10;0.10;;;;;;;;;;6159023;23;20017;-85
2023/08/30 04:40:42;;;;;;;0.10;0.10;;;;;;;;;;6158618;23;20021;-85
2023/08/30 04:43:08;;;;;;;0.17;0.17;;;;;;;;;;6183314;23;20058;-85
2023/08/30 04:45:37;;;;;;;0.10;0.10;;;;;;;;;;6183192;23;20023;-85
2023/08/30 04:48:03;;;;;;;0.20;0.20;;;;;;;;;;6185000;23;20013;-85
2023/08/30 04:50:30;;;;;;;0.10;0.10;;;;;;;;;;6183442;23;20350;-84
2023/08/30 04:52:56;;;;;;;0.10;0.10;;;;;;;;;;6159056;23;20066;-85
2023/08/30 04:55:22;;;;;;;0.10;0.10;;;;;;;;;;6183206;23;20100;-86
2023/08/30 04:57:48;;;;;;;0.10;0.10;;;;;;;;;;6158647;23;20017;-85
2023/08/30 05:00:14;;;;;;;0.40;0.40;;;;;;;;;;6158911;23;20012;-85
2023/08/30 05:02:43;;;;;;;0.10;0.10;;;;;;;;;;6158515;23;20461;-84
2023/08/30 05:05:09;;;;;;;0.10;0.10;;;;;;;;;;6158048;23;20103;-84
2023/08/30 05:07:35;;;;;;;0.20;0.20;;;;;;;;;;6158518;23;20017;-85
2023/08/30 05:10:01;;;;;;;0.17;0.17;;;;;;;;;;6158670;23;20393;-85
2023/08/30 05:12:27;;;;;;;0.10;0.10;;;;;;;;;;6158993;23;20020;-84
2023/08/30 05:14:53;;;;;;;0.25;0.25;;;;;;;;;;6183007;23;20013;-85
2023/08/30 05:17:19;;;;;;;0.10;0.10;;;;;;;;;;6158278;23;20009;-84
2023/08/30 05:19:45;;;;;;;0.10;0.10;;;;;;;;;;6184498;23;20514;-84
2023/08/30 05:22:11;;;;;;;0.10;0.10;;;;;;;;;;6182903;23;20056;-84
2023/08/30 05:24:37;;;;;;;0.10;0.10;;;;;;;;;;6184741;23;20013;-84
2023/08/30 05:27:03;;;;;;;0.47;0.40;;;;;;;;;;6182947;23;20009;-85
2023/08/30 05:29:29;;;;;;;0.10;0.10;;;;;;;;;;6158486;23;20017;-85
2023/08/30 05:31:55;;;;;;;0.10;0.10;;;;;;;;;;6158270;23;20364;-85
2023/08/30 05:34:21;;;;;;;0.10;0.10;;;;;;;;;;6182833;23;20084;-85
2023/08/30 05:36:47;;;;;;;0.10;0.10;;;;;;;;;;6184399;23;20017;-84
2023/08/30 05:39:13;;;;;;;0.10;0.10;;;;;;;;;;6184706;23;20013;-84
2023/08/30 05:41:39;;;;;;;0.20;0.20;;;;;;;;;;6158468;23;20024;-85
2023/08/30 05:44:05;;;;;;;0.10;0.10;;;;;;;;;;6184582;23;20013;-84
2023/08/30 05:46:31;;;;;;;0.10;0.10;;;;;;;;;;6182941;23;20040;-85
2023/08/30 05:48:57;;;;;;;0.10;0.10;;;;;;;;;;6158500;23;20013;-85
2023/08/30 05:51:25;;;;;;;0.10;0.10;;;;;;;;;;6158357;23;20637;-85
2023/08/30 05:53:50;;;;;;;0.28;0.20;;;;;;;;;;6184151;23;20017;-85
2023/08/30 05:56:17;;;;;;;0.10;0.10;;;;;;;;;;6182835;23;20088;-85
2023/08/30 05:58:43;;;;;;;0.20;0.20;;;;;;;;;;6184562;23;20013;-84
2023/08/30 06:01:09;;;;;;;0.10;0.10;;;;;;;;;;6158337;23;20040;-85
2023/08/30 06:03:35;;;;;;;0.10;0.10;;;;;;;;;;6184080;23;20084;-85
2023/08/30 06:06:01;;;;;;;0.20;0.20;;;;;;;;;;6158466;23;20160;-85
2023/08/30 06:08:27;;;;;;;0.10;0.10;;;;;;;;;;6182743;23;20017;-84
2023/08/30 06:10:53;;;;;;;0.10;0.10;;;;;;;;;;6158500;23;20068;-84
2023/08/30 06:13:19;;;;;;;0.13;0.13;;;;;;;;;;6161441;23;20017;-85
2023/08/30 06:15:45;;;;;;;0.10;0.10;;;;;;;;;;6187778;23;20013;-85
2023/08/30 06:18:11;;;;;;;0.20;0.20;;;;;;;;;;6185625;23;20017;-85
2023/08/30 06:20:41;;;;;;;0.10;0.10;;;;;;;;;;6185466;23;20020;-85
2023/08/30 06:23:07;;;;;;;0.10;0.10;;;;;;;;;;6187506;23;20009;-86
2023/08/30 06:25:33;;;;;;;0.10;0.10;;;;;;;;;;6187337;23;20401;-86
2023/08/30 06:28:01;;;;;;;0.20;0.20;;;;;;;;;;6161092;23;20051;-86
2023/08/30 06:30:27;;;;;;;0.10;0.10;;;;;;;;;;6161463;23;20481;-86
2023/08/30 06:32:53;;;;;;;0.10;0.10;;;;;;;;;;6185753;23;20446;-88
2023/08/30 06:35:19;;;;;;;0.10;0.10;;;;;;;;;;6185990;23;20044;-88
2023/08/30 06:37:45;;;;;;;0.10;0.10;;;;;;;;;;6136688;23;20048;-86
2023/08/30 06:40:11;;;;;;;0.10;0.10;;;;;;;;;;6187449;23;20075;-86
2023/08/30 06:42:38;;;;;;;0.10;0.10;;;;;;;;;;6161122;23;20028;-85
2023/08/30 06:45:04;;;;;;;0.10;0.10;;;;;;;;;;6136423;23;20013;-86
2023/08/30 06:47:30;;;;;;;0.10;0.10;;;;;;;;;;6136504;23;20040;-86
2023/08/30 06:49:56;;;;;;;0.10;0.10;;;;;;;;;;6185812;23;20089;-86
2023/08/30 06:52:22;;;;;;;0.10;0.10;;;;;;;;;;6161608;23;20028;-87
2023/08/30 06:54:48;;;;;;;0.10;0.10;;;;;;;;;;6185616;23;20013;-85
2023/08/30 06:57:14;;;;;;;0.30;0.30;;;;;;;;;;6136178;23;20017;-85
2023/08/30 06:59:40;;;;;;;0.10;0.10;;;;;;;;;;6185648;23;20457;-87
2023/08/30 07:02:06;;;;;;;0.20;0.20;;;;;;;;;;6187573;23;20045;-88
2023/08/30 07:04:32;;;;;;;0.52;0.52;;;;;;;;;;6136504;23;20017;-87
2023/08/30 07:06:58;;;;;;;0.10;0.10;;;;;;;;;;6161076;23;20006;-88
2023/08/30 07:09:28;;;;;;;0.15;0.15;;;;;;;;;;6136753;23;20016;-88
2023/08/30 07:11:55;;;;;;;0.10;0.10;;;;;;;;;;6137408;23;20017;-88
2023/08/30 07:14:21;;;;;;;0.10;0.10;;;;;;;;;;6161554;23;20101;-88
2023/08/30 07:16:49;;;;;;;0.10;0.10;;;;;;;;;;6143742;23;20064;-91
2023/08/30 07:19:15;;;;;;;0.20;0.20;;;;;;;;;;6138478;23;20017;-91
2023/08/30 07:21:41;;;;;;;0.10;0.10;;;;;;;;;;6136971;23;20023;-90
2023/08/30 07:24:25;;;;;;;0.10;0.10;;;;;;;;;;6139633;23;20013;-90
2023/08/30 07:26:51;;;;;;;0.10;0.10;;;;;;;;;;6160883;23;20036;-90
2023/08/30 07:29:17;;;;;;;0.10;0.10;;;;;;;;;;6161822;23;20013;-91
2023/08/30 07:31:43;;;;;;;0.10;0.10;;;;;;;;;;6183204;22;20053;-92
2023/08/30 07:34:09;;;;;;;0.10;0.10;;;;;;;;;;6185531;23;20429;-92
2023/08/30 07:36:35;;;;;;;0.10;0.10;;;;;;;;;;6167417;23;20334;-89
2023/08/30 07:39:01;;;;;;;0.10;0.10;;;;;;;;;;6160649;23;20017;-88
2023/08/30 07:41:27;;;;;;;0.10;0.10;;;;;;;;;;6159613;23;20100;-87
2023/08/30 07:43:53;;;;;;;0.10;0.10;;;;;;;;;;6134712;23;20009;-89
2023/08/30 07:46:19;;;;;;;0.10;0.10;;;;;;;;;;6184052;23;20487;-88
2023/08/30 07:48:45;;;;;;;0.10;0.10;;;;;;;;;;6185743;23;20010;-89
2023/08/30 07:51:11;;;;;;;0.10;0.10;;;;;;;;;;6134579;23;20159;-90
2023/08/30 07:53:37;;;;;;;0.10;0.10;;;;;;;;;;6159714;23;20024;-87
2023/08/30 07:56:03;;;;;;;0.20;0.20;;;;;;;;;;6134638;23;20044;-88
2023/08/30 07:58:29;;;;;;;0.20;0.20;;;;;;;;;;6134821;23;20354;-88
2023/08/30 08:00:55;;;;;;;0.10;0.10;;;;;;;;;;6134658;23;20097;-88
2023/08/30 08:03:21;;;;;;;0.10;0.10;;;;;;;;;;6159474;23;20009;-88
2023/08/30 08:05:47;;;;;;;0.32;0.32;;;;;;;;;;6183721;23;20379;-90
2023/08/30 08:08:14;;;;;;;0.10;0.10;;;;;;;;;;6134711;23;20017;-89
2023/08/30 08:10:40;;;;;;;0.10;0.10;;;;;;;;;;6135227;23;20223;-89
2023/08/30 08:13:06;;;;;;;0.10;0.10;;;;;;;;;;6159904;23;20013;-89
2023/08/30 08:15:32;;;;;;;0.10;0.10;;;;;;;;;;6134970;23;20029;-89
2023/08/30 08:17:58;;;;;;;0.10;0.10;;;;;;;;;;6183879;23;20116;-89
2023/08/30 08:20:24;;;;;;;0.10;0.10;;;;;;;;;;6134461;23;20442;-89
2023/08/30 08:22:50;;;;;;;0.10;0.10;;;;;;;;;;6159289;23;20116;-88
2023/08/30 08:25:16;;;;;;;0.20;0.20;;;;;;;;;;6183644;23;20434;-89
2023/08/30 08:27:42;;;;;;;0.20;0.20;;;;;;;;;;6183892;23;20008;-88
2023/08/30 08:30:09;;;;;;;0.10;0.10;;;;;;;;;;6159443;23;20009;-89
2023/08/30 08:32:35;;;;;;;0.10;0.10;;;;;;;;;;6183578;23;20021;-89
2023/08/30 08:35:02;;;;;;;0.10;0.10;;;;;;;;;;6133955;23;20035;-89
2023/08/30 08:37:28;;;;;;;0.10;0.10;;;;;;;;;;6134543;23;20013;-88
2023/08/30 08:39:54;;;;;;;0.10;0.10;;;;;;;;;;6134369;23;20017;-89
2023/08/30 08:42:20;;;;;;;0.10;0.10;;;;;;;;;;6159062;23;20015;-88
2023/08/30 08:44:52;;;;;;;0.10;0.10;;;;;;;;;;6158863;23;20095;-89
2023/08/30 08:47:20;;;;;;;0.10;0.10;;;;;;;;;;6159352;23;20044;-89
2023/08/30 08:49:46;;;;;;;0.20;0.20;;;;;;;;;;6183307;23;20041;-89
2023/08/30 08:52:12;;;;;;;0.20;0.20;;;;;;;;;;6134282;23;20063;-88
2023/08/30 08:54:42;;;;;;;0.10;0.10;;;;;;;;;;6158670;23;20012;-89
2023/08/30 08:57:09;;;;;;;0.10;0.10;;;;;;;;;;6158852;23;20461;-89
2023/08/30 08:59:35;;;;;;;0.40;0.40;;;;;;;;;;6134138;23;20250;-88
2023/08/30 09:02:01;;;;;;;0.10;0.10;;;;;;;;;;6158665;23;20024;-89
2023/08/30 09:04:27;;;;;;;0.10;0.10;;;;;;;;;;6158682;23;20017;-89
2023/08/30 09:06:53;;;;;;;0.10;0.10;;;;;;;;;;6158877;23;20434;-88
2023/08/30 09:09:19;;;;;;;0.10;0.10;;;;;;;;;;6134157;23;20009;-89
2023/08/30 09:11:45;;;;;;;0.10;0.10;;;;;;;;;;6158759;23;20366;-89
2023/08/30 09:14:11;;;;;;;0.10;0.10;;;;;;;;;;6158483;23;20044;-88
2023/08/30 09:16:37;;;;;;;0.10;0.10;;;;;;;;;;6185140;23;20024;-88
2023/08/30 09:19:04;;;;;;;0.13;0.13;;;;;;;;;;6185041;23;20454;-88
2023/08/30 09:21:31;;;;;;;0.10;0.10;;;;;;;;;;6133690;23;20024;-89
2023/08/30 09:24:04;;;;;;;0.10;0.10;;;;;;;;;;6134089;23;20092;-88
2023/08/30 09:26:33;;;;;;;0.10;0.10;;;;;;;;;;6133627;23;20019;-89
2023/08/30 09:29:03;;;;;;;0.20;0.20;;;;;;;;;;6159575;23;20013;-89
2023/08/30 09:31:36;;;;;;;0.10;0.10;;;;;;;;;;6158647;23;20087;-88
2023/08/30 09:34:02;;;;;;;0.10;0.10;;;;;;;;;;6133627;23;20377;-88
2023/08/30 09:36:38;;;;;;;0.20;0.20;;;;;;;;;;6134070;23;20338;-88
2023/08/30 09:39:04;;;;;;;0.10;0.10;;;;;;;;;;6184752;23;20088;-88
2023/08/30 09:41:32;;;;;;;0.20;0.20;;;;;;;;;;6158518;23;20020;-88
2023/08/30 09:43:58;;;;;;;0.10;0.10;;;;;;;;;;6133985;23;20012;-89
2023/08/30 09:46:24;;;;;;;0.10;0.10;;;;;;;;;;6157899;23;20005;-88
2023/08/30 09:48:50;;;;;;;0.10;0.10;;;;;;;;;;6133746;23;20044;-89
2023/08/30 09:51:16;;;;;;;0.10;0.10;;;;;;;;;;6158567;23;20051;-88
2023/08/30 09:53:43;;;;;;;0.10;0.10;;;;;;;;;;6133705;23;20347;-88
2023/08/30 09:56:18;;;;;;;0.10;0.10;;;;;;;;;;6158422;23;20408;-88
2023/08/30 09:58:44;;;;;;;0.10;0.10;;;;;;;;;;6158788;23;20009;-88
2023/08/30 10:01:10;;;;;;;0.10;0.10;;;;;;;;;;6134068;23;20094;-89
2023/08/30 10:03:36;;;;;;;0.10;0.10;;;;;;;;;;6133588;23;20009;-89
2023/08/30 10:06:05;;;;;;;0.10;0.10;;;;;;;;;;6157954;23;20446;-89
2023/08/30 10:08:31;;;;;;;0.10;0.10;;;;;;;;;;6109576;23;20020;-89
2023/08/30 10:10:58;;;;;;;0.10;0.10;;;;;;;;;;6133661;23;20024;-94
2023/08/30 10:13:27;;;;;;;0.10;0.10;;;;;;;;;;6134562;23;20013;-90
2023/08/30 10:15:57;;;;;;;0.10;0.10;;;;;;;;;;6158253;23;20017;-88
2023/08/30 10:18:23;;;;;;;0.10;0.10;;;;;;;;;;6158501;23;20044;-88
2023/08/30 10:20:49;;;;;;;0.10;0.10;;;;;;;;;;6157981;23;20459;-87
2023/08/30 10:23:15;;;;;;;0.10;0.10;;;;;;;;;;6157879;23;20020;-87
2023/08/30 10:25:41;;;;;;;0.10;0.10;;;;;;;;;;6133257;23;20551;-88
2023/08/30 10:28:07;;;;;;;0.10;0.10;;;;;;;;;;6157375;23;20020;-86
2023/08/30 10:30:33;;;;;;;0.10;0.10;;;;;;;;;;6132963;23;20044;-88
2023/08/30 10:32:59;;;;;;;0.10;0.10;;;;;;;;;;6183560;23;20457;-86
2023/08/30 10:35:25;;;;;;;0.10;0.10;;;;;;;;;;6157746;23;20063;-87
2023/08/30 10:37:55;;;;;;;0.20;0.20;;;;;;;;;;6158238;23;20051;-87
2023/08/30 10:40:22;;;;;;;0.10;0.10;;;;;;;;;;6182294;23;20090;-88
2023/08/30 10:42:48;;;;;;;0.10;0.10;;;;;;;;;;6135001;23;20028;-87
2023/08/30 10:45:14;;;;;;;0.20;0.20;;;;;;;;;;6163415;23;20009;-87
2023/08/30 10:47:40;;;;;;;0.10;0.10;;;;;;;;;;6134886;23;20048;-86
2023/08/30 10:50:07;;;;;;;0.10;0.10;;;;;;;;;;6182202;23;20013;-87
2023/08/30 10:52:33;;;;;;;0.15;0.15;;;;;;;;;;6158102;23;20021;-87
2023/08/30 10:55:08;;;;;;;0.10;0.10;;;;;;;;;;6184121;23;20025;-87
2023/08/30 10:57:34;;;;;;;0.10;0.10;;;;;;;;;;6158059;23;20024;-86
2023/08/30 11:00:09;;;;;;;0.10;0.10;;;;;;;;;;6185928;23;20020;-86
2023/08/30 11:02:35;;;;;;;0.35;0.25;;;;;;;;;;6184128;23;20044;-87
2023/08/30 11:05:03;;;;;;;0.20;0.20;;;;;;;;;;6134328;23;20021;-86
2023/08/30 11:07:29;;;;;;;0.10;0.10;;;;;;;;;;6134771;23;20347;-87
2023/08/30 11:09:55;;;;;;;0.10;0.10;;;;;;;;;;6159460;23;20341;-86
2023/08/30 11:12:25;;;;;;;0.10;0.10;;;;;;;;;;6184215;23;20091;-86
2023/08/30 11:14:51;;;;;;;0.10;0.10;;;;;;;;;;6160752;23;20013;-86
2023/08/30 11:17:17;;;;;;;0.10;0.10;;;;;;;;;;6134805;23;20024;-85
2023/08/30 11:19:43;;;;;;;0.10;0.10;;;;;;;;;;6134862;23;20017;-85
2023/08/30 11:22:09;;;;;;;0.10;0.10;;;;;;;;;;6183769;23;20454;-86
2023/08/30 11:24:35;;;;;;;0.10;0.10;;;;;;;;;;6159169;23;20020;-86
2023/08/30 11:27:01;;;;;;;0.20;0.20;;;;;;;;;;6159211;23;20040;-88
2023/08/30 11:29:27;;;;;;;0.10;0.10;;;;;;;;;;6153800;23;20023;-87
2023/08/30 11:31:53;;;;;;;0.20;0.20;;;;;;;;;;6159017;23;20013;-87
2023/08/30 11:34:22;;;;;;;0.10;0.10;;;;;;;;;;6158838;23;20013;-87
2023/08/30 11:36:48;;;;;;;0.38;0.38;;;;;;;;;;6134273;23;20017;-88
2023/08/30 11:39:14;;;;;;;0.20;0.20;;;;;;;;;;6159181;23;20207;-87
2023/08/30 11:41:40;;;;;;;0.10;0.10;;;;;;;;;;6183700;23;20020;-88
2023/08/30 11:44:06;;;;;;;0.10;0.10;;;;;;;;;;6134349;23;20076;-88
2023/08/30 11:46:32;;;;;;;0.10;0.10;;;;;;;;;;6158876;23;20029;-87
2023/08/30 11:48:58;;;;;;;0.10;0.10;;;;;;;;;;6159311;23;20010;-92
2023/08/30 11:51:24;;;;;;;0.20;0.20;;;;;;;;;;6159235;23;20083;-91
2023/08/30 11:53:50;;;;;;;0.20;0.20;;;;;;;;;;6159738;23;20350;-91
2023/08/30 11:56:16;;;;;;;0.10;0.10;;;;;;;;;;6134454;23;20017;-89
2023/08/30 11:58:43;;;;;;;0.10;0.10;;;;;;;;;;6159079;23;20035;-89
2023/08/30 12:01:09;;;;;;;0.10;0.10;;;;;;;;;;6134391;23;20378;-90
2023/08/30 12:03:36;;;;;;;0.10;0.10;;;;;;;;;;6158932;23;20092;-89
2023/08/30 12:06:02;;;;;;;0.10;0.10;;;;;;;;;;6134315;23;20017;-89
2023/08/30 12:08:28;;;;;;;0.10;0.10;;;;;;;;;;6159222;23;20009;-89
2023/08/30 12:10:55;;;;;;;0.10;0.10;;;;;;;;;;6134702;23;20048;-89
2023/08/30 12:13:21;;;;;;;0.10;0.10;;;;;;;;;;6134123;23;20016;-88
2023/08/30 12:15:47;;;;;;;0.10;0.10;;;;;;;;;;6158874;23;20009;-88
2023/08/30 12:18:13;;;;;;;0.10;0.10;;;;;;;;;;6133949;23;20017;-89
2023/08/30 12:20:39;;;;;;;0.10;0.10;;;;;;;;;;6183455;23;20469;-88
2023/08/30 12:23:05;;;;;;;0.10;0.10;;;;;;;;;;6158828;23;20013;-88
2023/08/30 12:25:32;;;;;;;0.10;0.10;;;;;;;;;;6158584;23;20015;-88
2023/08/30 12:27:58;;;;;;;0.10;0.10;;;;;;;;;;6159517;23;20013;-88
2023/08/30 12:30:24;;;;;;;0.10;0.10;;;;;;;;;;6159110;23;20065;-88
2023/08/30 12:32:50;;;;;;;0.20;0.20;;;;;;;;;;6134009;23;20020;-88
2023/08/30 12:35:16;;;;;;;0.10;0.10;;;;;;;;;;6158932;23;20013;-88
2023/08/30 12:37:42;;;;;;;0.10;0.10;;;;;;;;;;6158471;23;20443;-88
2023/08/30 12:40:08;;;;;;;0.10;0.10;;;;;;;;;;6133832;23;20065;-87
2023/08/30 12:42:34;;;;;;;0.10;0.10;;;;;;;;;;6158624;23;20017;-88
2023/08/30 12:45:00;;;;;;;0.20;0.20;;;;;;;;;;6184868;23;20019;-88
2023/08/30 12:47:26;;;;;;;0.10;0.10;;;;;;;;;;6158723;23;20016;-87
2023/08/30 12:49:52;;;;;;;0.10;0.10;;;;;;;;;;6158910;23;20041;-88
2023/08/30 12:52:18;;;;;;;0.10;0.10;;;;;;;;;;6158457;23;20057;-87
2023/08/30 12:54:44;;;;;;;0.10;0.10;;;;;;;;;;6158769;23;20012;-88
2023/08/30 12:57:11;;;;;;;0.10;0.10;;;;;;;;;;6109785;23;20051;-86
2023/08/30 12:59:37;;;;;;;0.10;0.10;;;;;;;;;;6183051;23;20020;-88
2023/08/30 13:02:04;;;;;;;0.10;0.10;;;;;;;;;;6133910;23;20013;-88
2023/08/30 13:04:30;;;;;;;0.10;0.10;;;;;;;;;;6158175;23;20021;-88
2023/08/30 13:06:55;;;;;;;0.10;0.10;;;;;;;;;;6158452;23;20454;-88
2023/08/30 13:09:21;;;;;;;0.20;0.20;;;;;;;;;;6133917;23;20009;-88
2023/08/30 13:11:47;;;;;;;0.10;0.10;;;;;;;;;;6158787;23;20021;-89
2023/08/30 13:14:13;;;;;;;0.10;0.10;;;;;;;;;;6158463;23;20017;-88
2023/08/30 13:16:39;;;;;;;0.10;0.10;;;;;;;;;;6158445;23;20104;-88
2023/08/30 13:19:05;;;;;;;0.10;0.10;;;;;;;;;;6182950;23;20081;-89
2023/08/30 13:21:31;;;;;;;0.20;0.20;;;;;;;;;;6158702;23;20086;-88
2023/08/30 13:23:57;;;;;;;0.10;0.10;;;;;;;;;;6158430;23;20335;-88
2023/08/30 13:26:23;;;;;;;0.10;0.10;;;;;;;;;;6158296;23;20079;-88
2023/08/30 13:28:49;;;;;;;0.10;0.10;;;;;;;;;;6133845;23;20009;-88
2023/08/30 13:31:15;;;;;;;0.10;0.10;;;;;;;;;;6158773;23;20330;-88
2023/08/30 13:33:41;;;;;;;0.10;0.10;;;;;;;;;;6158058;23;20067;-89
2023/08/30 13:36:07;;;;;;;0.10;0.10;;;;;;;;;;6133961;23;20088;-87
2023/08/30 13:38:33;;;;;;;0.10;0.10;;;;;;;;;;6158160;23;20382;-89
2023/08/30 13:41:03;;;;;;;0.10;0.10;;;;;;;;;;6158198;23;20362;-88
2023/08/30 13:43:30;;;;;;;0.10;0.10;;;;;;;;;;6133385;23;20066;-89
2023/08/30 13:46:00;;;;;;;0.10;0.10;;;;;;;;;;6158626;23;20017;-89
2023/08/30 13:48:26;;;;;;;0.10;0.10;;;;;;;;;;6158701;23;20009;-89
2023/08/30 13:50:52;;;;;;;0.10;0.10;;;;;;;;;;6158569;23;20092;-89
2023/08/30 13:53:18;;;;;;;0.10;0.10;;;;;;;;;;6184539;23;20076;-90
2023/08/30 13:55:50;;;;;;;0.10;0.10;;;;;;;;;;6158018;23;20454;-89
2023/08/30 13:58:16;;;;;;;0.10;0.10;;;;;;;;;;6182735;23;20023;-90
2023/08/30 14:00:42;;;;;;;0.17;0.17;;;;;;;;;;6133782;23;20338;-90
2023/08/30 14:03:08;;;;;;;0.10;0.10;;;;;;;;;;6158068;23;20021;-89
2023/08/30 14:05:34;;;;;;;0.10;0.10;;;;;;;;;;6133394;23;20021;-88
2023/08/30 14:08:00;;;;;;;0.10;0.10;;;;;;;;;;6182905;23;20123;-88
2023/08/30 14:10:26;;;;;;;0.10;0.10;;;;;;;;;;6182620;23;20048;-89
2023/08/30 14:12:52;;;;;;;0.10;0.10;;;;;;;;;;6133939;23;20018;-89
2023/08/30 14:15:18;;;;;;;0.10;0.10;;;;;;;;;;6157967;23;20045;-89
2023/08/30 14:17:44;;;;;;;0.10;0.10;;;;;;;;;;6157934;23;20013;-89
2023/08/30 14:20:10;;;;;;;0.10;0.10;;;;;;;;;;6158286;23;20049;-88
2023/08/30 14:22:38;;;;;;;0.10;0.10;;;;;;;;;;6133735;23;20020;-88
2023/08/30 14:25:04;;;;;;;0.10;0.10;;;;;;;;;;6158146;23;20013;-88
2023/08/30 14:27:30;;;;;;;0.10;0.10;;;;;;;;;;6158144;23;20024;-88
2023/08/30 14:29:56;;;;;;;0.10;0.10;;;;;;;;;;6158521;23;20053;-88
2023/08/30 14:32:22;;;;;;;0.10;0.10;;;;;;;;;;6183505;23;20446;-89
2023/08/30 14:34:48;;;;;;;0.10;0.10;;;;;;;;;;6159967;23;20019;-89
2023/08/30 14:37:14;;;;;;;0.10;0.10;;;;;;;;;;6135199;23;20123;-89
2023/08/30 14:39:40;;;;;;;0.10;0.10;;;;;;;;;;6159810;23;20021;-88